createdAt,value
2023-03-12T00:04:58.394Z,80.16
2023-03-12T00:08:10.260Z,79.98
2023-03-12T00:11:22.173Z,80.14
2023-03-12T00:14:26.292Z,80.19
2023-03-12T00:17:43.207Z,79.91
2023-03-12T00:21:02.313Z,79.70
2023-03-12T00:24:12.568Z,79.72
2023-03-12T00:27:22.463Z,79.71
2023-03-12T00:30:23.144Z,79.77
2023-03-12T00:33:25.558Z,79.45
2023-03-12T00:36:34.642Z,79.54
2023-03-12T00:39:48.892Z,79.60
2023-03-12T00:42:59.719Z,79.57
2023-03-12T00:46:10.500Z,79.64
2023-03-12T00:49:23.334Z,79.91
2023-03-12T00:52:26.269Z,79.72
2023-03-12T00:55:31.214Z,79.51
2023-03-12T00:58:34.097Z,79.57
2023-03-12T01:01:36.551Z,79.27
2023-03-12T01:04:38.404Z,79.46
2023-03-12T01:15:33.473Z,79.10
2023-03-12T01:18:56.930Z,79.42
2023-03-12T01:26:00.589Z,79.72
2023-03-12T01:29:17.103Z,79.41
2023-03-12T01:32:29.938Z,79.45
2023-03-12T01:35:42.158Z,79.87
2023-03-12T01:38:44.694Z,79.80
2023-03-12T01:41:55.630Z,80.18
2023-03-12T01:45:16.519Z,80.47
2023-03-12T01:48:30.429Z,80.09
2023-03-12T01:51:33.944Z,79.95
2023-03-12T01:54:37.784Z,79.64
2023-03-12T01:58:03.534Z,79.80
2023-03-12T02:01:12.538Z,79.82
2023-03-12T02:04:28.555Z,79.47
2023-03-12T02:07:25.912Z,80.05
2023-03-12T02:10:36.729Z,80.04
2023-03-12T02:13:42.631Z,80.12
2023-03-12T02:16:53.415Z,79.87
2023-03-12T02:19:59.382Z,80.21
2023-03-12T02:23:19.581Z,80.07
2023-03-12T02:26:30.475Z,80.25
2023-03-12T02:30:00.114Z,80.39
2023-03-12T02:33:12.016Z,80.47
2023-03-12T02:36:14.525Z,80.88
2023-03-12T02:39:18.477Z,81.06
2023-03-12T02:42:16.956Z,80.94
2023-03-12T02:45:46.491Z,80.93
2023-03-12T02:48:55.403Z,80.88
2023-03-12T02:52:06.632Z,81.48
2023-03-12T02:55:17.403Z,81.46
2023-03-12T02:58:27.314Z,81.33
2023-03-12T03:01:17.804Z,81.19
2023-03-12T03:04:37.159Z,81.45
2023-03-12T03:07:48.980Z,81.28
2023-03-12T03:11:09.349Z,81.51
2023-03-12T03:14:21.201Z,81.31
2023-03-12T03:17:33.040Z,81.22
2023-03-12T03:20:43.870Z,81.12
2023-03-12T03:23:55.631Z,81.15
2023-03-12T03:30:42.364Z,81.71
2023-03-12T03:33:55.163Z,81.62
2023-03-12T03:37:04.191Z,81.91
2023-03-12T03:40:16.106Z,81.42
2023-03-12T03:43:28.013Z,81.63
2023-03-12T03:46:38.514Z,81.97
2023-03-12T03:49:50.396Z,81.58
2023-03-12T03:53:03.355Z,81.74
2023-03-12T03:56:14.561Z,81.92
2023-03-12T03:59:28.618Z,81.38
2023-03-12T04:02:40.687Z,80.92
2023-03-12T04:05:59.288Z,81.16
2023-03-12T04:20:20.803Z,80.98
2023-03-12T04:23:38.102Z,80.66
2023-03-12T04:26:49.957Z,80.78
2023-03-12T04:33:10.081Z,80.58
2023-03-12T04:36:22.899Z,80.18
2023-03-12T04:39:51.486Z,80.15
2023-03-12T04:46:43.094Z,79.67
2023-03-12T04:49:57.103Z,79.43
2023-03-12T04:53:00.739Z,79.75
2023-03-12T04:56:19.994Z,79.88
2023-03-12T04:59:40.128Z,80.03
2023-03-12T05:02:47.096Z,79.79
2023-03-12T05:05:49.676Z,79.80
2023-03-12T05:09:01.596Z,79.45
2023-03-12T05:12:25.101Z,79.41
2023-03-12T05:15:35.882Z,79.16
2023-03-12T05:18:46.887Z,79.64
2023-03-12T05:21:57.680Z,79.82
2023-03-12T05:25:17.118Z,79.42
2023-03-12T05:28:27.963Z,79.81
2023-03-12T05:31:38.812Z,79.07
2023-03-12T05:34:40.846Z,79.53
2023-03-12T05:38:02.466Z,79.32
2023-03-12T05:41:17.292Z,79.45
2023-03-12T05:44:37.548Z,79.05
2023-03-12T05:47:51.301Z,78.64
2023-03-12T05:51:21.188Z,78.64
2023-03-12T05:54:15.087Z,78.21
2023-03-12T05:57:17.054Z,77.94
2023-03-12T06:00:38.290Z,77.52
2023-03-12T06:04:08.932Z,77.33
2023-03-12T06:07:21.638Z,77.33
2023-03-12T06:14:19.715Z,75.97
2023-03-12T06:17:36.603Z,75.30
2023-03-12T06:20:53.980Z,75.07
2023-03-12T06:24:04.795Z,74.51
2023-03-12T06:30:50.689Z,73.75
2023-03-12T06:34:01.595Z,73.73
2023-03-12T06:37:10.505Z,73.21
2023-03-12T06:40:21.377Z,72.76
2023-03-12T06:43:50.065Z,72.55
2023-03-12T06:47:10.160Z,71.93
2023-03-12T06:50:15.795Z,70.97
2023-03-12T06:53:27.696Z,70.22
2023-03-12T06:56:38.522Z,69.86
2023-03-12T06:59:51.298Z,69.32
2023-03-12T07:03:11.514Z,68.91
2023-03-12T07:06:24.289Z,69.09
2023-03-12T07:09:37.596Z,67.81
2023-03-12T07:12:56.788Z,67.34
2023-03-12T07:16:07.829Z,66.90
2023-03-12T07:19:18.655Z,67.77
2023-03-12T07:22:29.570Z,66.94
2023-03-12T07:25:40.637Z,66.67
2023-03-12T07:28:43.748Z,66.13
2023-03-12T07:31:56.203Z,65.93
2023-03-12T07:35:09.132Z,65.74
2023-03-12T07:38:19.283Z,65.74
2023-03-12T07:41:26.512Z,65.72
2023-03-12T07:44:48.940Z,65.71
2023-03-12T07:48:11.237Z,65.59
2023-03-12T07:51:24.101Z,65.22
2023-03-12T07:54:27.173Z,65.02
2023-03-12T07:57:46.868Z,63.92
2023-03-12T08:00:58.982Z,63.75
2023-03-12T08:04:09.961Z,63.38
2023-03-12T08:07:17.089Z,62.53
2023-03-12T08:10:24.175Z,62.23
2023-03-12T08:13:44.357Z,61.91
2023-03-12T08:16:58.325Z,61.11
2023-03-12T08:20:17.243Z,59.91
2023-03-12T08:23:29.201Z,59.64
2023-03-12T08:26:42.120Z,59.13
2023-03-12T08:29:53.030Z,59.70
2023-03-12T08:37:06.240Z,59.14
2023-03-12T08:40:26.355Z,58.90
2023-03-12T08:43:52.548Z,59.11
2023-03-12T08:47:03.705Z,58.75
2023-03-12T08:50:07.761Z,58.28
2023-03-12T08:53:15.947Z,59.15
2023-03-12T09:07:33.197Z,57.90
2023-03-12T09:10:40.160Z,58.08
2023-03-12T09:17:44.619Z,57.90
2023-03-12T09:20:58.921Z,57.92
2023-03-12T09:24:07.805Z,57.37
2023-03-12T09:27:28.146Z,58.15
2023-03-12T09:30:38.094Z,57.85
2023-03-12T09:33:56.233Z,58.06
2023-03-12T09:37:04.121Z,58.24
2023-03-12T09:40:24.448Z,58.69
2023-03-12T09:43:43.564Z,58.77
2023-03-12T09:46:55.764Z,57.64
2023-03-12T09:50:01.290Z,58.34
2023-03-12T09:56:55.581Z,58.71
2023-03-12T10:00:07.632Z,58.37
2023-03-12T10:03:09.175Z,58.67
2023-03-12T10:06:12.832Z,58.01
2023-03-12T10:09:21.413Z,58.45
2023-03-12T10:20:20.929Z,58.01
2023-03-12T10:27:22.614Z,57.88
2023-03-12T10:30:43.933Z,57.79
2023-03-12T10:33:59.317Z,58.49
2023-03-12T10:41:04.840Z,57.62
2023-03-12T10:44:23.136Z,57.17
2023-03-12T10:47:40.230Z,57.15
2023-03-12T10:50:46.183Z,57.62
2023-03-12T10:54:05.718Z,56.93
2023-03-12T10:57:13.934Z,57.52
2023-03-12T11:00:25.527Z,57.28
2023-03-12T11:04:01.711Z,56.74
2023-03-12T11:07:22.246Z,56.93
2023-03-12T11:14:23.019Z,56.50
2023-03-12T11:17:48.815Z,56.85
2023-03-12T11:21:02.738Z,56.83
2023-03-12T11:24:15.742Z,56.91
2023-03-12T11:31:00.939Z,55.89
2023-03-12T11:34:01.986Z,56.28
2023-03-12T11:45:03.796Z,56.76
2023-03-12T11:48:38.613Z,56.50
2023-03-12T11:59:57.445Z,55.46
2023-03-12T12:03:05.139Z,55.65
2023-03-12T12:10:00.122Z,54.70
2023-03-12T12:13:04.840Z,53.97
2023-03-12T12:16:13.503Z,54.34
2023-03-12T12:19:12.101Z,54.85
2023-03-12T12:22:11.909Z,54.72
2023-03-12T12:25:21.946Z,54.02
2023-03-12T12:28:20.619Z,54.05
2023-03-12T12:31:35.125Z,53.39
2023-03-12T12:34:29.862Z,53.98
2023-03-12T12:41:11.577Z,54.90
2023-03-12T12:47:21.919Z,53.93
2023-03-12T12:50:19.966Z,52.81
2023-03-12T12:53:39.846Z,53.29
2023-03-12T12:56:43.226Z,53.14
2023-03-12T13:00:02.443Z,53.49
2023-03-12T13:03:19.860Z,53.44
2023-03-12T13:06:42.802Z,53.42
2023-03-12T13:09:59.679Z,54.00
2023-03-12T13:17:16.501Z,53.42
2023-03-12T13:20:26.111Z,53.83
2023-03-12T13:23:20.870Z,52.73
2023-03-12T13:26:30.697Z,52.96
2023-03-12T13:29:26.673Z,52.91
2023-03-12T13:32:26.623Z,52.79
2023-03-12T13:35:42.017Z,53.14
2023-03-12T13:39:01.834Z,52.54
2023-03-12T13:42:03.836Z,52.88
2023-03-12T13:45:13.801Z,52.52
2023-03-12T13:48:33.623Z,52.05
2023-03-12T13:51:15.819Z,51.82
2023-03-12T13:54:25.105Z,51.51
2023-03-12T13:57:43.926Z,50.89
2023-03-12T14:03:50.432Z,51.16
2023-03-12T14:07:16.915Z,51.38
2023-03-12T14:11:01.754Z,51.58
2023-03-12T14:14:17.825Z,51.36
2023-03-12T14:17:35.697Z,51.52
2023-03-12T14:20:41.571Z,51.52
2023-03-12T14:23:56.935Z,51.18
2023-03-12T14:26:55.738Z,51.26
2023-03-12T14:30:17.867Z,51.28
2023-03-12T14:33:39.211Z,50.42
2023-03-12T14:36:53.654Z,50.70
2023-03-12T14:40:00.246Z,51.00
2023-03-12T14:43:35.815Z,50.60
2023-03-12T14:46:49.274Z,51.02
2023-03-12T14:50:03.518Z,50.72
2023-03-12T14:53:08.135Z,50.44
2023-03-12T14:56:27.463Z,50.50
2023-03-12T14:59:41.205Z,50.24
2023-03-12T15:02:55.516Z,50.39
2023-03-12T15:06:12.446Z,50.10
2023-03-12T15:09:31.720Z,50.81
2023-03-12T15:13:07.610Z,50.75
2023-03-12T15:16:11.979Z,50.86
2023-03-12T15:19:22.817Z,50.96
2023-03-12T15:22:41.942Z,51.04
2023-03-12T15:29:14.911Z,50.06
2023-03-12T15:32:25.888Z,50.21
2023-03-12T15:35:46.405Z,50.38
2023-03-12T15:39:00.516Z,50.11
2023-03-12T15:42:13.388Z,50.57
2023-03-12T15:45:39.104Z,50.42
2023-03-12T15:49:04.479Z,50.40
2023-03-12T15:52:16.329Z,50.60
2023-03-12T15:55:31.071Z,50.84
2023-03-12T15:58:47.838Z,50.98
2023-03-12T16:02:07.841Z,50.79
2023-03-12T16:05:29.823Z,51.33
2023-03-12T16:08:36.712Z,50.91
2023-03-12T16:11:44.394Z,51.65
2023-03-12T16:18:54.351Z,51.88
2023-03-12T16:22:37.599Z,51.55
2023-03-12T16:25:44.259Z,51.70
2023-03-12T16:28:55.749Z,51.71
2023-03-12T16:32:06.644Z,51.79
2023-03-12T16:35:26.820Z,51.88
2023-03-12T16:42:30.185Z,52.77
2023-03-12T16:49:06.718Z,53.03
2023-03-12T16:52:51.936Z,53.30
2023-03-12T16:55:32.748Z,53.99
2023-03-12T16:59:23.554Z,54.29
2023-03-12T17:02:52.281Z,55.31
2023-03-12T17:12:16.678Z,56.52
2023-03-12T17:19:44.754Z,57.04
2023-03-12T17:22:45.689Z,57.29
2023-03-12T17:29:53.420Z,58.37
2023-03-12T17:36:18.631Z,59.39
2023-03-12T17:39:38.860Z,59.59
2023-03-12T17:48:32.677Z,60.11
2023-03-12T17:51:45.682Z,60.12
2023-03-12T17:58:01.694Z,60.41
2023-03-12T18:03:50.528Z,59.75
2023-03-12T18:07:10.251Z,59.44
2023-03-12T18:10:33.344Z,59.21
2023-03-12T18:17:00.708Z,58.97
2023-03-12T18:20:11.704Z,59.38
2023-03-12T18:23:24.838Z,59.03
2023-03-12T18:26:44.099Z,58.89
2023-03-12T18:29:56.303Z,58.69
2023-03-12T18:33:23.945Z,59.60
2023-03-12T18:36:41.507Z,59.72
2023-03-12T18:39:51.669Z,60.40
2023-03-12T18:43:02.487Z,60.04
2023-03-12T18:46:15.264Z,60.22
2023-03-12T18:49:37.504Z,60.76
2023-03-12T18:52:50.313Z,60.96
2023-03-12T18:56:02.084Z,61.31
2023-03-12T18:59:21.258Z,61.47
2023-03-12T19:02:41.485Z,61.91
2023-03-12T19:06:01.762Z,62.24
2023-03-12T19:09:12.519Z,62.92
2023-03-12T19:12:24.328Z,63.37
2023-03-12T19:15:37.114Z,63.79
2023-03-12T19:18:52.059Z,64.45
2023-03-12T19:22:12.222Z,64.38
2023-03-12T19:25:24.010Z,63.75
2023-03-12T19:28:44.106Z,63.63
2023-03-12T19:31:55.118Z,64.08
2023-03-12T19:35:07.032Z,64.91
2023-03-12T19:38:19.255Z,64.59
2023-03-12T19:41:34.133Z,63.92
2023-03-12T19:44:46.493Z,64.38
2023-03-12T19:48:12.794Z,64.82
2023-03-12T19:51:18.257Z,65.51
2023-03-12T19:54:29.661Z,65.83
2023-03-12T19:57:48.795Z,65.93
2023-03-12T20:00:59.622Z,65.62
2023-03-12T20:04:18.788Z,65.94
2023-03-12T20:07:29.546Z,65.77
2023-03-12T20:10:48.820Z,66.33
2023-03-12T20:14:09.064Z,66.28
2023-03-12T20:17:20.245Z,66.72
2023-03-12T20:20:47.927Z,66.67
2023-03-12T20:23:58.745Z,67.13
2023-03-12T20:27:09.667Z,67.15
2023-03-12T20:30:37.298Z,67.52
2023-03-12T20:34:06.285Z,67.78
2023-03-12T20:37:28.208Z,67.85
2023-03-12T20:40:39.106Z,67.99
2023-03-12T20:43:51.041Z,68.24
2023-03-12T20:47:02.041Z,67.10
2023-03-12T20:50:20.333Z,67.78
2023-03-12T20:53:31.313Z,68.16
2023-03-12T20:56:43.470Z,67.47
2023-03-12T20:59:55.266Z,67.02
2023-03-12T21:03:06.611Z,65.92
2023-03-12T21:06:26.173Z,65.01
2023-03-12T21:09:37.270Z,64.59
2023-03-12T21:12:50.324Z,64.06
2023-03-12T21:16:09.752Z,63.67
2023-03-12T21:19:20.300Z,62.98
2023-03-12T21:22:33.224Z,62.13
2023-03-12T21:25:37.991Z,61.93
2023-03-12T21:28:41.135Z,61.82
2023-03-12T21:31:51.946Z,61.54
2023-03-12T21:35:14.572Z,61.52
2023-03-12T21:41:20.832Z,60.64
2023-03-12T21:44:47.404Z,60.39
2023-03-12T21:48:00.587Z,60.36
2023-03-12T21:51:04.990Z,60.56
2023-03-12T21:54:18.921Z,59.87
2023-03-12T21:57:30.877Z,59.76
2023-03-12T22:00:58.734Z,60.36
2023-03-12T22:04:09.877Z,59.41
2023-03-12T22:07:20.672Z,59.54
2023-03-12T22:10:31.659Z,59.20
2023-03-12T22:13:42.672Z,59.34
2023-03-12T22:17:02.464Z,59.12
2023-03-12T22:20:15.684Z,58.95
2023-03-12T22:23:26.631Z,59.13
2023-03-12T22:26:06.831Z,59.20
2023-03-12T22:32:03.328Z,59.07
2023-03-12T22:35:11.777Z,58.73
2023-03-12T22:38:18.546Z,58.43
2023-03-12T22:43:56.552Z,59.00
2023-03-12T22:47:08.857Z,58.55
2023-03-12T22:50:39.517Z,58.32
2023-03-12T22:53:59.228Z,58.28
2023-03-12T22:57:19.515Z,58.28
2023-03-12T23:02:58.906Z,58.42
2023-03-12T23:06:12.230Z,58.19
2023-03-12T23:09:26.295Z,58.08
2023-03-12T23:12:37.189Z,57.95
2023-03-12T23:15:46.139Z,58.30
2023-03-12T23:18:57.179Z,58.34
2023-03-12T23:21:59.679Z,58.64
2023-03-12T23:25:10.502Z,58.08
2023-03-12T23:28:30.664Z,58.44
2023-03-12T23:31:26.595Z,58.42
2023-03-12T23:34:53.637Z,58.41
2023-03-12T23:38:12.058Z,58.90
2023-03-12T23:41:31.236Z,58.94
2023-03-12T23:44:41.093Z,58.99
2023-03-12T23:47:20.487Z,59.42
2023-03-12T23:52:45.836Z,59.64
2023-03-12T23:56:24.156Z,60.32
2023-03-12T23:59:43.387Z,60.60
